Terminal Aerodrome Forecast
Issued by NWS

Home | Current Version | Previous Version | Text Only | Print | Product List | Glossary On
Versions: 1 2 3 4 5 6 7 8 9 10 11 12 13 14 15 16 17 18 19 20
000
FTUS43 KEAX 152300
TAFMKC
TAF
KMKC 152327Z 1600/1624 28014G22KT P6SM OVC013
      TEMPO 1600/1602 -DZ
     FM161000 31013G23KT P6SM OVC025
     FM161700 32010KT P6SM SCT030=

USA.gov is the U.S. government's official web portal to all federal, state and local government web resources and services.